»·PEaware :: N149CD KWHP-L45

N149CD :: KWHP-L45

FLIGHT INFORMATION

Flight Status: Arrived
Operator: Privately registered:
United States
More flights under this callsign
Pilot: Nathan E. (30132)
Aircraft: CESSNA 172 SKYHAWK
(C172)
More flights by this aircraft type
Origin: KWHP Whiteman
United States
Destination: L45 Bakersfield Mun
United States
More flights between these airports :: More routes between these airports
Route: VNY TWINE V23 LAMPE
File this flight plan on PilotEdge
Remarks:
Altitude:
(Current/Filed)
9,500ft
Speed:
(Current/Filed)
110kts
Departed: 07-Dec-20 03:39 PM
Arrived: 07-Dec-20 04:29 PM
Distance/Time
Traveled:
70nm/0:50
Distance/Time
To Go:
Arrived

Flight Plot

Page will automatically refresh every two minutes.

Flight plan parsing failed; only flown route is shown


Map Options




Map Legend


Flown Route
Filed Route
Departure Airport
Arrival Airport
Navaid (VOR, NDB)
Fix

Horizontal Profiles

Position Reports

Time Latitude Longitude Heading Altitude Ground
Speed
07-Dec-20 15:17 34.261139 -118.412545 139 1003ft 0kts
07-Dec-20 15:18 34.261139 -118.412545 139 1003ft 0kts
07-Dec-20 15:19 34.261138 -118.412545 139 1003ft 0kts
07-Dec-20 15:19 34.261138 -118.412545 139 1003ft 0kts
07-Dec-20 15:21 34.261138 -118.412545 139 1003ft 0kts
07-Dec-20 15:21 34.261138 -118.412545 139 1003ft 0kts
07-Dec-20 15:23 34.261138 -118.412545 139 1003ft 0kts
07-Dec-20 15:24 34.261138 -118.412545 139 1003ft 0kts
07-Dec-20 15:26 34.261138 -118.412545 139 1003ft 0kts
07-Dec-20 15:26 34.261138 -118.412545 139 1003ft 0kts
07-Dec-20 15:27 34.261138 -118.412545 139 1003ft 0kts
07-Dec-20 15:28 34.261138 -118.412545 139 1003ft 0kts
07-Dec-20 15:29 34.261138 -118.412545 139 1003ft 0kts
07-Dec-20 15:30 34.261138 -118.412545 139 1003ft 0kts
07-Dec-20 15:31 34.261138 -118.412545 139 1003ft 0kts
07-Dec-20 15:32 34.261138 -118.412545 139 1003ft 0kts
07-Dec-20 15:33 34.261138 -118.412545 139 1003ft 0kts
07-Dec-20 15:34 34.259111 -118.412595 138 989ft 14kts
07-Dec-20 15:35 34.256784 -118.409854 296 975ft 0kts
07-Dec-20 15:36 34.256784 -118.409854 296 975ft 0kts
07-Dec-20 15:37 34.255604 -118.408912 156 970ft 0kts
07-Dec-20 15:38 34.257110 -118.411143 318 979ft 52kts
07-Dec-20 15:39 34.269909 -118.427516 281 1661ft 71kts
07-Dec-20 15:40 34.267966 -118.452771 271 2469ft 78kts
07-Dec-20 15:41 34.264879 -118.479960 271 3244ft 85kts
07-Dec-20 15:42 34.262473 -118.508962 301 3977ft 83kts
07-Dec-20 15:43 34.279887 -118.519526 340 4703ft 75kts
07-Dec-20 15:44 34.273292 -118.541247 161 5376ft 89kts
07-Dec-20 15:45 34.256930 -118.525452 123 6060ft 75kts
07-Dec-20 15:46 34.241009 -118.508941 125 6715ft 75kts
07-Dec-20 15:47 34.221539 -118.500938 207 7334ft 103kts
07-Dec-20 15:48 34.225781 -118.529776 332 7882ft 97kts
07-Dec-20 15:49 34.246724 -118.551763 332 8397ft 102kts
07-Dec-20 15:50 34.268721 -118.574492 332 8892ft 106kts
07-Dec-20 15:51 34.291474 -118.597902 331 9367ft 109kts
07-Dec-20 15:52 34.315893 -118.618840 351 9817ft 104kts
07-Dec-20 15:53 34.345291 -118.633734 350 9964ft 129kts
07-Dec-20 15:54 34.378892 -118.650554 349 9962ft 131kts
07-Dec-20 15:55 34.412943 -118.667419 349 9955ft 132kts
07-Dec-20 15:56 34.447116 -118.684305 350 9951ft 132kts
07-Dec-20 15:57 34.481309 -118.701192 349 9946ft 133kts
07-Dec-20 15:58 34.515579 -118.718146 349 9941ft 134kts
07-Dec-20 15:59 34.550142 -118.735255 349 9936ft 134kts
07-Dec-20 16:00 34.584690 -118.752387 349 9956ft 133kts
07-Dec-20 16:01 34.619071 -118.769438 349 9998ft 133kts
07-Dec-20 16:02 34.653641 -118.786598 348 10044ft 134kts
07-Dec-20 16:03 34.688301 -118.803809 348 10092ft 135kts
07-Dec-20 16:04 34.723110 -118.821138 348 10126ft 135kts
07-Dec-20 16:05 34.758624 -118.838817 348 9979ft 135kts
07-Dec-20 16:06 34.792776 -118.855852 350 9976ft 132kts
07-Dec-20 16:07 34.827286 -118.869331 357 9979ft 128kts
07-Dec-20 16:08 34.861381 -118.881147 357 9987ft 126kts
07-Dec-20 16:09 34.894869 -118.891443 19 9991ft 108kts
07-Dec-20 16:10 34.924145 -118.885260 25 9503ft 107kts
07-Dec-20 16:11 34.953008 -118.878828 23 8993ft 103kts
07-Dec-20 16:12 34.980533 -118.872671 22 7983ft 99kts
07-Dec-20 16:13 35.007948 -118.866567 19 7300ft 99kts
07-Dec-20 16:14 35.035356 -118.868467 338 6788ft 115kts
07-Dec-20 16:15 35.061626 -118.894833 327 5947ft 128kts
07-Dec-20 16:16 35.085062 -118.920592 326 4937ft 108kts
07-Dec-20 16:17 35.093444 -118.929800 326 4574ft 107kts
07-Dec-20 16:18 35.103386 -118.939575 336 4163ft 102kts
07-Dec-20 16:19 35.124608 -118.963807 322 3240ft 101kts
07-Dec-20 16:20 35.150362 -118.975252 351 2347ft 98kts
07-Dec-20 16:21 35.178237 -118.978974 352 1475ft 100kts
07-Dec-20 16:22 35.206414 -118.982095 354 746ft 97kts
07-Dec-20 16:23 35.231441 -118.982930 352 717ft 84kts
07-Dec-20 16:24 35.257534 -118.987725 350 866ft 97kts
07-Dec-20 16:25 35.283411 -118.990995 350 936ft 80kts
07-Dec-20 16:26 35.303257 -118.993475 350 863ft 59kts
07-Dec-20 16:27 35.319509 -118.995412 350 382ft 53kts
07-Dec-20 16:28 35.324445 -118.996437 259 378ft 4kts
07-Dec-20 16:29 35.324525 -118.997313 359 378ft 0kts

Navigation Log

Ident Type
Flight plan parsing failed, navigation log unavailable